Time;durP1;ratioP1;P1;durP2;ratioP2;P2;SDS_P1;SDS_P2;PMS_P1;PMS_P2;Temp;Humidity;BMP_temperature;BMP_pressure;BME280_temperature;BME280_humidity;BME280_pressure;Samples;Min_cycle;Max_cycle;Signal;HPM_P1;HPM_P2
2022/08/06 00:02:20;;;;;;;21.63;11.68;;;;;;;18.08;87.52;94345.16;5014482;28;20077;-71
2022/08/06 00:05:00;;;;;;;20.40;11.40;;;;;;;18.11;89.01;94338.66;5009860;28;20060;-67
2022/08/06 00:07:27;;;;;;;19.45;10.98;;;;;;;18.20;88.14;94335.94;5008923;28;20044;-67
2022/08/06 00:10:15;;;;;;;22.83;12.23;;;;;;;18.08;87.23;94336.81;5007665;28;20810;-67
2022/08/06 00:12:41;;;;;;;21.05;11.60;;;;;;;18.17;87.49;94332.09;5008793;28;20046;-67
2022/08/06 00:15:12;;;;;;;21.65;12.35;;;;;;;18.06;85.90;94337.25;5007648;28;20706;-66
2022/08/06 00:17:42;;;;;;;25.35;12.20;;;;;;;17.85;86.91;94349.94;5008955;28;20487;-70
2022/08/06 00:20:10;;;;;;;23.20;12.70;;;;;;;17.63;88.91;94344.38;5006245;28;20050;-70
2022/08/06 00:22:50;;;;;;;24.23;12.70;;;;;;;17.58;88.60;94342.16;5008014;28;20111;-70
2022/08/06 00:25:17;;;;;;;23.85;12.20;;;;;;;17.43;90.17;94336.34;5008545;28;20151;-70
2022/08/06 00:27:45;;;;;;;19.58;11.38;;;;;;;17.47;88.15;94339.00;5007709;28;20057;-70
2022/08/06 00:30:18;;;;;;;20.75;10.57;;;;;;;17.28;89.91;94344.38;5008588;28;20042;-69
2022/08/06 00:32:48;;;;;;;19.02;10.63;;;;;;;17.35;89.89;94348.91;5007997;28;20139;-67
2022/08/06 00:35:21;;;;;;;18.07;9.90;;;;;;;17.14;88.19;94351.19;5011313;28;20487;-67
2022/08/06 00:37:54;;;;;;;14.60;8.32;;;;;;;17.25;87.00;94364.69;5002431;28;20046;-67
2022/08/06 00:40:29;;;;;;;15.25;8.15;;;;;;;17.36;86.77;94365.13;5008931;28;20046;-68
2022/08/06 00:42:59;;;;;;;13.55;8.05;;;;;;;17.53;86.41;94381.59;5007741;28;20046;-69
2022/08/06 00:45:32;;;;;;;12.45;7.20;;;;;;;17.32;83.57;94374.75;5008424;28;20056;-66
2022/08/06 00:48:04;;;;;;;11.80;7.10;;;;;;;16.98;85.07;94367.97;5007443;28;20127;-68
2022/08/06 00:50:34;;;;;;;12.73;7.45;;;;;;;16.97;85.70;94364.41;5008083;28;20101;-68
2022/08/06 00:53:02;;;;;;;12.52;7.20;;;;;;;17.12;87.68;94364.72;5007203;28;20103;-67
2022/08/06 00:55:30;;;;;;;12.55;6.88;;;;;;;17.34;86.39;94372.31;5008178;28;20050;-69
2022/08/06 00:58:03;;;;;;;11.45;6.93;;;;;;;17.46;85.37;94379.81;5007737;28;20054;-66
2022/08/06 01:00:31;;;;;;;12.97;7.13;;;;;;;17.12;85.87;94378.59;5002689;28;20042;-67
2022/08/06 01:03:06;;;;;;;11.50;6.68;;;;;;;17.20;86.64;94370.78;4991997;28;20391;-67
2022/08/06 01:05:54;;;;;;;12.32;7.38;;;;;;;17.01;85.99;94371.84;5005825;28;20535;-66
2022/08/06 01:08:41;;;;;;;10.95;6.85;;;;;;;17.01;85.90;94372.63;5007208;28;20045;-66
2022/08/06 01:11:10;;;;;;;13.82;7.30;;;;;;;17.10;85.56;94372.72;5007106;28;20232;-67
2022/08/06 01:13:38;;;;;;;13.13;7.07;;;;;;;17.07;84.52;94376.38;5008172;28;20038;-66
2022/08/06 01:16:36;;;;;;;12.00;6.93;;;;;;;17.06;84.07;94377.59;5007229;28;20091;-67
2022/08/06 01:19:27;;;;;;;10.23;6.25;;;;;;;16.92;83.05;94376.09;5007488;28;20046;-69
2022/08/06 01:22:39;;;;;;;10.00;5.80;;;;;;;16.76;82.64;94373.38;5006980;28;20611;-70
2022/08/06 01:25:41;;;;;;;10.88;6.18;;;;;;;16.64;82.17;94372.19;5010920;28;20045;-72
2022/08/06 01:28:31;;;;;;;10.57;5.97;;;;;;;16.73;82.33;94379.81;5010393;28;20619;-70
2022/08/06 01:31:12;;;;;;;8.68;5.63;;;;;;;16.86;81.01;94386.19;5010930;28;20446;-72
2022/08/06 01:33:44;;;;;;;9.57;5.78;;;;;;;17.00;81.22;94384.91;5012810;28;20545;-68
2022/08/06 01:36:26;;;;;;;8.93;5.22;;;;;;;17.07;81.67;94392.25;5010482;28;21945;-67
2022/08/06 01:38:57;;;;;;;8.60;5.60;;;;;;;17.05;83.19;94395.47;5011053;28;20406;-71
2022/08/06 01:41:40;;;;;;;8.70;5.33;;;;;;;17.15;82.48;94388.00;5011696;28;20052;-68
2022/08/06 01:44:34;;;;;;;9.70;5.70;;;;;;;17.15;80.25;94386.00;5010550;28;20697;-67
2022/08/06 01:47:07;;;;;;;10.77;5.85;;;;;;;17.01;81.08;94391.25;5010954;28;20425;-67
2022/08/06 01:49:49;;;;;;;9.75;5.57;;;;;;;16.90;81.84;94389.63;5011451;28;20103;-68
2022/08/06 01:52:32;;;;;;;10.23;5.72;;;;;;;16.65;81.25;94393.13;5008821;28;20824;-67
2022/08/06 01:55:03;;;;;;;9.23;5.17;;;;;;;16.78;80.68;94382.81;5010711;28;20030;-74
2022/08/06 01:57:33;;;;;;;7.20;4.65;;;;;;;16.82;82.20;94387.50;5011013;28;20107;-70
2022/08/06 02:00:20;;;;;;;9.15;5.40;;;;;;;16.87;80.35;94381.41;5009941;28;20524;-67
2022/08/06 02:02:59;;;;;;;9.00;5.20;;;;;;;16.82;80.73;94393.03;5021086;28;20045;-69
2022/08/06 02:05:29;;;;;;;10.48;5.20;;;;;;;16.67;80.24;94392.69;5011107;28;20050;-66
2022/08/06 02:08:00;;;;;;;9.17;5.63;;;;;;;16.61;80.22;94386.91;5010735;28;20046;-70
2022/08/06 02:10:49;;;;;;;9.70;5.07;;;;;;;16.69;82.20;94384.72;5010599;28;20058;-68
2022/08/06 02:13:19;;;;;;;8.07;5.03;;;;;;;16.60;81.74;94384.59;5010650;28;20041;-68
2022/08/06 02:15:46;;;;;;;9.15;5.20;;;;;;;16.74;80.13;94382.16;5010521;28;20053;-70
2022/08/06 02:18:29;;;;;;;9.48;4.80;;;;;;;16.79;80.05;94383.59;5010621;28;20050;-66
2022/08/06 02:21:23;;;;;;;7.83;5.00;;;;;;;16.46;81.04;94392.13;5010240;28;20046;-70
2022/08/06 02:24:02;;;;;;;9.85;5.00;;;;;;;16.46;80.67;94392.13;5010041;28;20042;-67
2022/08/06 02:26:30;;;;;;;7.97;5.22;;;;;;;16.28;83.14;94395.44;5010607;28;20057;-67
2022/08/06 02:29:01;;;;;;;8.00;5.10;;;;;;;16.32;81.79;94390.56;5010213;28;20042;-67
2022/08/06 02:31:27;;;;;;;9.23;5.32;;;;;;;16.06;82.67;94394.50;5010849;28;20056;-69
2022/08/06 02:34:04;;;;;;;8.10;5.17;;;;;;;16.42;81.94;94394.25;5013350;28;20091;-67
2022/08/06 02:36:43;;;;;;;9.25;5.70;;;;;;;16.55;81.84;94395.00;5009923;28;20038;-66
2022/08/06 02:39:26;;;;;;;8.63;5.20;;;;;;;16.53;80.88;94403.00;5009264;28;20130;-71
2022/08/06 02:42:43;;;;;;;11.07;5.50;;;;;;;16.53;80.22;94396.69;5009912;28;20441;-67
2022/08/06 02:45:29;;;;;;;7.03;4.53;;;;;;;16.56;80.47;94399.34;4975693;28;20840;-69
2022/08/06 02:48:26;;;;;;;9.50;5.43;;;;;;;16.58;81.16;94396.13;5009724;28;20056;-73
2022/08/06 02:51:04;;;;;;;9.70;5.20;;;;;;;16.31;82.18;94382.69;5010005;28;20050;-66
2022/08/06 02:54:07;;;;;;;10.45;5.65;;;;;;;16.17;82.85;94397.72;5008211;28;20061;-67
2022/08/06 02:56:36;;;;;;;11.32;5.30;;;;;;;15.96;83.62;94396.38;5010509;28;20037;-71
2022/08/06 02:59:15;;;;;;;9.10;5.25;;;;;;;16.33;82.62;94399.66;5009155;28;20620;-69
2022/08/06 03:01:48;;;;;;;8.80;5.20;;;;;;;16.25;82.93;94390.00;5012034;28;20038;-70
2022/08/06 03:04:18;;;;;;;9.05;5.00;;;;;;;16.37;82.75;94406.63;5016487;28;20628;-68
2022/08/06 03:06:54;;;;;;;7.70;4.93;;;;;;;16.41;81.35;94395.44;5009602;28;20045;-69
2022/08/06 03:09:22;;;;;;;7.13;4.50;;;;;;;16.20;81.78;94399.63;5009587;28;20064;-70
2022/08/06 03:11:51;;;;;;;6.35;4.22;;;;;;;16.04;80.23;94394.94;5009182;28;20067;-68
2022/08/06 03:14:22;;;;;;;6.73;3.90;;;;;;;16.18;80.67;94405.59;5009704;28;20081;-69
2022/08/06 03:17:12;;;;;;;6.18;4.03;;;;;;;16.19;80.52;94403.59;5008509;28;21450;-68
2022/08/06 03:19:43;;;;;;;6.90;4.20;;;;;;;16.28;79.75;94402.94;5009645;28;20054;-70
2022/08/06 03:22:26;;;;;;;5.35;3.63;;;;;;;16.27;79.50;94413.25;5007841;28;20705;-69
2022/08/06 03:25:12;;;;;;;8.13;4.28;;;;;;;16.18;79.56;94404.84;5008461;28;20926;-68
2022/08/06 03:27:41;;;;;;;7.17;4.10;;;;;;;16.12;79.80;94403.81;5009168;28;20048;-71
2022/08/06 03:30:16;;;;;;;5.50;3.90;;;;;;;16.04;78.12;94399.72;5008242;28;20429;-67
2022/08/06 03:33:14;;;;;;;7.15;3.90;;;;;;;16.22;78.17;94401.94;5009163;28;20495;-67
2022/08/06 03:36:02;;;;;;;7.40;3.83;;;;;;;15.92;78.06;94404.78;5009009;28;20068;-70
2022/08/06 03:38:38;;;;;;;7.50;3.70;;;;;;;15.86;78.22;94403.75;4996949;28;20073;-67
2022/08/06 03:41:07;;;;;;;5.53;3.60;;;;;;;16.09;79.93;94407.47;5007917;28;20038;-68
2022/08/06 03:43:34;;;;;;;6.53;3.53;;;;;;;15.96;80.09;94410.22;5009555;28;20050;-70
2022/08/06 03:46:37;;;;;;;8.20;4.10;;;;;;;16.16;77.74;94410.03;5007934;28;20670;-71
2022/08/06 03:49:12;;;;;;;6.05;3.80;;;;;;;16.21;78.58;94411.47;5008616;28;20111;-73
2022/08/06 03:51:40;;;;;;;7.32;3.67;;;;;;;16.12;75.92;94409.38;5009203;28;20384;-68
2022/08/06 03:54:35;;;;;;;6.90;3.60;;;;;;;16.22;76.32;94408.28;5008184;28;20398;-65
2022/08/06 03:57:15;;;;;;;5.88;3.63;;;;;;;16.13;76.10;94410.91;5008457;28;20882;-66
2022/08/06 03:59:44;;;;;;;6.03;3.90;;;;;;;16.12;77.77;94404.59;5009438;28;20406;-70
2022/08/06 04:02:35;;;;;;;6.90;4.00;;;;;;;15.86;76.48;94408.53;5008743;28;20860;-69
2022/08/06 04:05:41;;;;;;;7.03;4.20;;;;;;;16.03;76.51;94409.22;4995664;28;20804;-66
2022/08/06 04:08:15;;;;;;;6.10;3.63;;;;;;;15.94;77.34;94420.94;5006714;28;20421;-65
2022/08/06 04:10:45;;;;;;;7.55;3.72;;;;;;;15.82;76.87;94429.97;5008880;28;20103;-65
2022/08/06 04:13:26;;;;;;;6.78;3.70;;;;;;;15.74;76.40;94423.84;5007954;28;20046;-66
2022/08/06 04:16:14;;;;;;;5.43;3.35;;;;;;;15.73;76.05;94422.28;5007833;28;20432;-66
2022/08/06 04:18:59;;;;;;;6.25;3.75;;;;;;;15.80;76.22;94433.19;5008588;28;20042;-68
2022/08/06 04:21:26;;;;;;;5.77;3.67;;;;;;;15.94;76.34;94435.56;5008647;28;20049;-65
2022/08/06 04:24:14;;;;;;;6.05;3.50;;;;;;;16.02;75.21;94436.13;4994259;28;21400;-65
2022/08/06 04:26:44;;;;;;;5.90;3.97;;;;;;;15.84;75.77;94442.16;5008906;28;20052;-66
2022/08/06 04:29:15;;;;;;;5.95;3.58;;;;;;;16.09;74.99;94435.91;5007492;28;20197;-64
2022/08/06 04:31:45;;;;;;;6.13;3.80;;;;;;;16.18;74.83;94446.38;5008880;28;20045;-69
2022/08/06 04:34:34;;;;;;;6.00;3.50;;;;;;;16.03;74.55;94447.97;5010199;28;20049;-64
2022/08/06 04:37:21;;;;;;;6.07;3.53;;;;;;;16.06;74.16;94444.34;5007582;28;20050;-65
2022/08/06 04:39:49;;;;;;;5.57;3.35;;;;;;;15.94;74.79;94441.09;5008291;28;20041;-65
2022/08/06 04:42:17;;;;;;;6.60;3.80;;;;;;;15.93;74.24;94444.28;5008479;28;20075;-65
2022/08/06 04:44:45;;;;;;;5.97;3.58;;;;;;;15.83;74.96;94448.91;5008330;28;20042;-66
2022/08/06 04:47:26;;;;;;;6.00;3.90;;;;;;;16.08;74.67;94450.22;5008641;28;20056;-67
2022/08/06 04:50:13;;;;;;;6.47;3.97;;;;;;;15.94;74.14;94454.94;5007340;28;20630;-70
2022/08/06 04:52:43;;;;;;;7.45;3.67;;;;;;;15.58;73.95;94455.84;5008323;28;20052;-68
2022/08/06 04:55:17;;;;;;;7.45;3.70;;;;;;;15.78;74.40;94452.22;5008320;28;20038;-67
2022/08/06 04:58:00;;;;;;;6.15;3.63;;;;;;;15.74;74.02;94449.53;5008599;28;20084;-69
2022/08/06 05:00:45;;;;;;;5.30;3.50;;;;;;;15.93;73.62;94452.59;5011455;28;20045;-66
2022/08/06 05:03:32;;;;;;;5.10;3.40;;;;;;;16.04;73.66;94468.94;5019709;28;20064;-67
2022/08/06 05:06:38;;;;;;;6.07;3.10;;;;;;;16.11;72.77;94472.25;5011376;28;21668;-70
2022/08/06 05:09:19;;;;;;;4.80;3.20;;;;;;;16.11;72.03;94472.25;5011177;28;21451;-67
2022/08/06 05:12:01;;;;;;;6.18;3.30;;;;;;;15.86;71.79;94472.94;5011852;28;20045;-66
2022/08/06 05:14:45;;;;;;;5.10;3.30;;;;;;;15.84;72.33;94469.06;5011748;28;20053;-72
2022/08/06 05:17:15;;;;;;;4.97;3.25;;;;;;;15.93;71.30;94472.75;5010721;28;20411;-74
2022/08/06 05:19:46;;;;;;;7.30;3.45;;;;;;;15.58;71.40;94477.97;5012004;28;20038;-66
2022/08/06 05:22:16;;;;;;;6.65;3.70;;;;;;;15.65;71.74;94481.78;5010903;28;20076;-68
2022/08/06 05:25:04;;;;;;;5.45;3.47;;;;;;;15.68;71.50;94486.44;5011514;28;20049;-66
2022/08/06 05:27:45;;;;;;;5.43;3.13;;;;;;;15.85;71.43;94487.97;5011296;28;20461;-66
2022/08/06 05:30:32;;;;;;;7.00;3.33;;;;;;;15.81;71.44;94484.53;5011592;28;20739;-66
2022/08/06 05:32:58;;;;;;;5.97;3.25;;;;;;;15.92;70.97;94490.56;5011308;28;20050;-68
2022/08/06 05:35:28;;;;;;;4.95;3.30;;;;;;;15.95;70.48;94486.16;5023490;28;20038;-67
2022/08/06 05:38:08;;;;;;;5.75;3.20;;;;;;;15.79;71.21;94489.72;5011244;28;20042;-66
2022/08/06 05:40:37;;;;;;;4.63;2.93;;;;;;;16.11;70.63;94493.63;5011328;28;20038;-70
2022/08/06 05:43:23;;;;;;;5.68;2.83;;;;;;;16.24;70.49;94494.47;5010535;28;20107;-66
2022/08/06 05:45:56;;;;;;;5.03;3.20;;;;;;;16.32;69.46;94492.28;5011046;28;20448;-66
2022/08/06 05:48:24;;;;;;;5.78;3.08;;;;;;;16.17;69.47;94492.66;5011375;28;20052;-68
2022/08/06 05:51:07;;;;;;;5.32;3.30;;;;;;;16.13;69.52;94496.75;5011030;28;20498;-67
2022/08/06 05:53:40;;;;;;;5.30;3.17;;;;;;;16.03;69.79;94501.34;5011299;28;20048;-66
2022/08/06 05:56:35;;;;;;;6.32;3.33;;;;;;;15.96;70.00;94499.56;5008687;28;20050;-69
2022/08/06 05:59:15;;;;;;;5.45;3.20;;;;;;;15.78;70.79;94500.03;5010938;28;20081;-72
2022/08/06 06:02:04;;;;;;;5.63;3.00;;;;;;;15.82;70.73;94504.72;5014033;28;20402;-69
2022/08/06 06:04:33;;;;;;;5.78;3.20;;;;;;;15.92;70.90;94509.19;5016764;28;20054;-65
2022/08/06 06:07:01;;;;;;;5.03;3.20;;;;;;;15.96;71.17;94521.72;5010444;28;20054;-70
2022/08/06 06:09:35;;;;;;;5.43;3.30;;;;;;;15.88;72.28;94522.34;5010548;28;20053;-72
2022/08/06 06:12:23;;;;;;;6.95;3.85;;;;;;;16.09;72.63;94524.53;5009990;28;20729;-67
2022/08/06 06:15:00;;;;;;;5.50;3.50;;;;;;;15.84;73.90;94516.88;5010643;28;20030;-68
2022/08/06 06:18:14;;;;;;;6.00;3.78;;;;;;;15.52;73.95;94531.50;5010589;28;20049;-67
2022/08/06 06:21:37;;;;;;;6.47;3.60;;;;;;;15.83;74.54;94526.38;4979101;28;20738;-71
2022/08/06 06:24:18;;;;;;;5.32;3.80;;;;;;;15.91;74.35;94529.75;4999667;28;20086;-66
2022/08/06 06:26:54;;;;;;;6.10;3.60;;;;;;;16.00;74.15;94526.34;5010258;28;20129;-67
2022/08/06 06:29:33;;;;;;;6.20;3.65;;;;;;;16.23;73.11;94522.59;5010390;28;20495;-70
2022/08/06 06:32:38;;;;;;;5.30;3.83;;;;;;;16.46;70.89;94533.44;5009205;28;20054;-67
2022/08/06 06:35:21;;;;;;;5.73;3.20;;;;;;;16.59;71.04;94533.44;5009856;28;20103;-69
2022/08/06 06:38:17;;;;;;;5.13;3.42;;;;;;;16.71;69.46;94537.47;5009548;28;20549;-73
2022/08/06 06:41:05;;;;;;;6.22;3.47;;;;;;;16.45;69.84;94542.16;4997384;28;20040;-68
2022/08/06 06:43:53;;;;;;;7.60;3.55;;;;;;;16.18;70.04;94535.00;5009793;28;20080;-71
2022/08/06 06:46:30;;;;;;;5.03;3.22;;;;;;;16.37;70.09;94547.13;5010206;28;20103;-67
2022/08/06 06:49:21;;;;;;;5.07;3.20;;;;;;;16.14;70.13;94546.16;5009926;28;20104;-68
2022/08/06 06:52:14;;;;;;;5.43;3.15;;;;;;;16.58;69.57;94552.06;5009731;28;20403;-71
2022/08/06 06:55:04;;;;;;;6.72;3.35;;;;;;;16.70;68.64;94553.34;5009863;28;20251;-71
2022/08/06 06:57:50;;;;;;;5.47;3.50;;;;;;;16.65;68.92;94558.63;5004014;28;20042;-68
2022/08/06 07:00:18;;;;;;;4.90;3.10;;;;;;;16.67;68.70;94564.50;5001752;28;20042;-73
2022/08/06 07:03:06;;;;;;;5.07;3.40;;;;;;;16.53;68.74;94560.91;5016673;28;20045;-68
2022/08/06 07:05:40;;;;;;;6.07;3.47;;;;;;;16.12;69.75;94556.88;5009380;28;20054;-72
2022/08/06 07:08:29;;;;;;;6.18;3.83;;;;;;;16.06;70.97;94558.63;5000836;28;20503;-69
2022/08/06 07:11:08;;;;;;;5.63;3.50;;;;;;;16.13;70.63;94560.44;5007832;28;20048;-69
2022/08/06 07:13:38;;;;;;;6.18;3.70;;;;;;;16.11;71.05;94562.84;5009090;28;20042;-71
2022/08/06 07:16:20;;;;;;;6.67;3.70;;;;;;;16.13;71.05;94554.88;5008599;28;20046;-70
2022/08/06 07:19:05;;;;;;;6.65;3.67;;;;;;;16.07;71.17;94559.41;5009289;28;20042;-71
2022/08/06 07:21:40;;;;;;;7.88;3.80;;;;;;;16.40;70.22;94564.84;5008289;28;20057;-68
2022/08/06 07:24:15;;;;;;;6.13;4.00;;;;;;;15.93;71.10;94563.31;4994360;28;20660;-68
2022/08/06 07:27:03;;;;;;;5.88;3.83;;;;;;;15.84;73.18;94566.72;4998606;28;20487;-70
2022/08/06 07:29:34;;;;;;;7.30;3.97;;;;;;;15.69;74.56;94577.31;5008981;28;20041;-71
2022/08/06 07:32:21;;;;;;;9.05;4.57;;;;;;;15.36;75.22;94580.06;5008529;28;22001;-71
2022/08/06 07:34:59;;;;;;;7.38;4.10;;;;;;;15.35;75.26;94575.75;5011505;28;20050;-71
2022/08/06 07:37:26;;;;;;;7.65;4.20;;;;;;;15.56;75.02;94568.16;5009113;28;20050;-70
2022/08/06 07:40:06;;;;;;;6.22;3.90;;;;;;;16.33;72.49;94568.59;5008919;28;20046;-69
2022/08/06 07:42:37;;;;;;;5.37;3.70;;;;;;;16.94;69.87;94575.22;5008888;28;20045;-71
2022/08/06 07:45:08;;;;;;;5.28;3.80;;;;;;;17.05;69.38;94577.72;5007832;28;20417;-68
2022/08/06 07:47:43;;;;;;;5.97;3.58;;;;;;;17.53;67.68;94567.53;5008762;28;20544;-65
2022/08/06 07:50:23;;;;;;;5.05;3.10;;;;;;;17.65;66.58;94577.06;5000474;28;20042;-73
2022/08/06 07:52:55;;;;;;;4.57;3.47;;;;;;;17.58;66.64;94575.28;5002353;28;20038;-65
2022/08/06 07:55:25;;;;;;;6.03;3.47;;;;;;;18.18;64.94;94577.31;4995285;28;20049;-68
2022/08/06 07:58:04;;;;;;;5.95;3.63;;;;;;;17.90;65.41;94584.59;5008520;28;20093;-66
2022/08/06 08:00:32;;;;;;;5.68;3.50;;;;;;;17.56;66.74;94581.25;5008363;28;20186;-69
2022/08/06 08:06:23;;;;;;;5.78;3.67;;;;;;;17.37;66.30;94583.06;5005491;28;21137;-68
2022/08/06 08:08:56;;;;;;;5.30;3.70;;;;;;;17.64;66.42;94581.81;4998068;28;20049;-70
2022/08/06 08:11:24;;;;;;;5.85;3.70;;;;;;;17.66;65.77;94587.69;4995009;28;20070;-64
2022/08/06 08:14:13;;;;;;;6.85;3.67;;;;;;;17.41;66.54;94584.97;5007942;28;20356;-63
2022/08/06 08:16:41;;;;;;;5.07;3.67;;;;;;;17.80;65.96;94589.25;5008505;28;20405;-69
2022/08/06 08:19:30;;;;;;;5.95;3.58;;;;;;;18.02;65.09;94591.34;5007451;28;22097;-63
2022/08/06 08:22:08;;;;;;;6.53;3.90;;;;;;;17.49;66.35;94587.06;4988660;28;20077;-66
2022/08/06 08:24:36;;;;;;;6.18;4.10;;;;;;;17.23;67.41;94589.03;5006026;28;20045;-68
2022/08/06 08:27:08;;;;;;;5.63;3.90;;;;;;;17.21;66.36;94590.72;5008315;28;20050;-66
2022/08/06 08:29:48;;;;;;;5.85;3.60;;;;;;;17.44;66.78;94590.38;4998210;28;20045;-64
2022/08/06 08:32:23;;;;;;;5.85;3.83;;;;;;;17.54;66.50;94589.25;5001368;28;20069;-73
2022/08/06 08:34:50;;;;;;;4.80;3.23;;;;;;;17.88;65.58;94587.03;5021111;28;20065;-68
2022/08/06 08:37:20;;;;;;;6.43;3.60;;;;;;;18.19;65.18;94583.63;5012900;28;20050;-67
2022/08/06 08:39:47;;;;;;;8.85;4.00;;;;;;;18.30;64.12;94589.63;5012059;28;20054;-68
2022/08/06 08:42:28;;;;;;;5.57;3.75;;;;;;;18.31;63.72;94583.63;5012843;28;20076;-66
2022/08/06 08:44:59;;;;;;;5.07;3.30;;;;;;;19.01;62.64;94589.09;5012375;28;20060;-63
2022/08/06 08:47:28;;;;;;;5.63;3.73;;;;;;;17.73;65.37;94584.72;5012594;28;20091;-62
2022/08/06 08:50:18;;;;;;;5.45;3.55;;;;;;;18.42;63.23;94594.34;5007497;28;20581;-67
2022/08/06 08:52:48;;;;;;;5.57;3.92;;;;;;;18.21;64.33;94595.06;5003277;28;20050;-69
2022/08/06 08:55:16;;;;;;;7.45;3.90;;;;;;;18.25;63.49;94590.97;5012345;28;20068;-66
2022/08/06 08:58:03;;;;;;;6.18;3.75;;;;;;;18.02;63.21;94599.69;5011849;28;22478;-65
2022/08/06 09:00:49;;;;;;;5.67;4.10;;;;;;;17.47;65.94;94592.28;5011974;28;20054;-67
2022/08/06 09:03:21;;;;;;;6.90;3.67;;;;;;;18.86;62.04;94579.75;5027402;28;20064;-63
2022/08/06 09:05:49;;;;;;;5.25;3.90;;;;;;;19.00;60.75;94593.13;5031424;28;20478;-63
2022/08/06 09:08:19;;;;;;;5.85;3.58;;;;;;;19.19;60.63;94596.75;5032352;28;20510;-62
2022/08/06 09:11:06;;;;;;;5.50;3.80;;;;;;;18.99;60.41;94601.91;5031696;28;20041;-63
2022/08/06 09:13:53;;;;;;;7.17;3.73;;;;;;;18.72;61.55;94600.47;5031020;28;20060;-63
2022/08/06 09:16:27;;;;;;;6.88;3.90;;;;;;;18.90;60.88;94608.19;5031350;28;20046;-63
2022/08/06 09:18:59;;;;;;;6.15;3.95;;;;;;;18.66;61.58;94608.59;5031267;28;20410;-64
2022/08/06 09:21:27;;;;;;;6.60;4.38;;;;;;;17.09;66.69;94615.19;5031645;28;20053;-73
2022/08/06 09:23:57;;;;;;;7.53;4.80;;;;;;;17.16;67.15;94611.44;5031684;28;20071;-63
2022/08/06 09:26:25;;;;;;;6.27;3.97;;;;;;;17.80;65.96;94616.25;5031911;28;20102;-63
2022/08/06 09:29:22;;;;;;;5.70;3.65;;;;;;;18.09;64.20;94624.44;5030853;28;20504;-63
2022/08/06 09:32:00;;;;;;;7.50;5.05;;;;;;;17.17;66.84;94622.09;5031246;28;20045;-63
2022/08/06 09:34:36;;;;;;;6.95;4.60;;;;;;;16.84;68.77;94621.47;5022125;28;20473;-66
2022/08/06 09:37:07;;;;;;;6.40;4.65;;;;;;;17.05;67.90;94622.06;5011515;28;20052;-68
2022/08/06 09:39:40;;;;;;;6.60;4.60;;;;;;;17.56;65.94;94624.91;5011973;28;20490;-63
2022/08/06 09:42:37;;;;;;;7.55;5.38;;;;;;;18.13;65.07;94619.56;5011053;28;20054;-65
2022/08/06 09:45:06;;;;;;;6.78;4.10;;;;;;;18.71;62.55;94619.16;5010575;28;20053;-69
2022/08/06 09:47:44;;;;;;;7.05;4.38;;;;;;;18.63;61.87;94622.63;5011547;28;20469;-67
2022/08/06 09:50:44;;;;;;;5.93;4.30;;;;;;;19.05;60.52;94622.34;5009785;28;20034;-70
2022/08/06 09:53:15;;;;;;;5.97;3.80;;;;;;;19.11;60.99;94617.75;5010691;28;20420;-65
2022/08/06 09:55:47;;;;;;;7.45;3.90;;;;;;;19.74;58.72;94616.56;5010896;28;20050;-63
2022/08/06 09:58:29;;;;;;;6.55;4.13;;;;;;;19.14;59.32;94622.41;5010738;28;20541;-64
2022/08/06 10:01:11;;;;;;;6.30;4.20;;;;;;;18.87;60.06;94618.19;5011125;28;20050;-67
2022/08/06 10:03:49;;;;;;;6.47;3.88;;;;;;;19.44;57.89;94620.13;5029680;28;20449;-66
2022/08/06 10:06:34;;;;;;;6.80;4.10;;;;;;;19.14;58.78;94617.63;5030646;28;20053;-64
2022/08/06 10:09:11;;;;;;;5.32;4.07;;;;;;;18.67;60.06;94621.28;5030595;28;20046;-64
2022/08/06 10:11:58;;;;;;;5.40;4.07;;;;;;;18.70;60.44;94627.94;5010588;28;20058;-68
2022/08/06 10:14:32;;;;;;;6.10;3.70;;;;;;;18.76;60.50;94626.91;5008137;28;20057;-67
2022/08/06 10:17:03;;;;;;;5.80;4.00;;;;;;;19.07;59.47;94623.44;5003323;28;20064;-63
2022/08/06 10:19:34;;;;;;;5.60;3.83;;;;;;;19.44;57.67;94622.91;5009179;28;20054;-70
2022/08/06 10:22:22;;;;;;;6.65;4.45;;;;;;;18.28;60.87;94634.50;4991348;28;20038;-69
2022/08/06 10:24:54;;;;;;;5.78;4.50;;;;;;;18.66;59.84;94632.84;5007830;28;20042;-65
2022/08/06 10:27:28;;;;;;;6.10;4.10;;;;;;;18.52;60.22;94628.56;5009638;28;20041;-69
2022/08/06 10:30:06;;;;;;;6.65;4.15;;;;;;;18.13;61.13;94630.69;5010002;28;20420;-68
2022/08/06 10:32:41;;;;;;;8.43;4.30;;;;;;;18.49;60.58;94633.03;5010110;28;20073;-68
2022/08/06 10:35:12;;;;;;;6.05;4.30;;;;;;;18.06;61.62;94630.91;5003137;28;20802;-68
2022/08/06 10:37:43;;;;;;;7.32;4.80;;;;;;;17.57;63.26;94638.34;5007132;28;20042;-65
2022/08/06 10:40:19;;;;;;;7.75;4.72;;;;;;;17.91;61.96;94636.91;5009526;28;20236;-71
2022/08/06 10:43:02;;;;;;;8.23;5.38;;;;;;;16.89;64.07;94650.66;5005291;28;20042;-65
2022/08/06 10:45:30;;;;;;;6.87;5.00;;;;;;;17.28;62.75;94643.19;5002262;28;20068;-70
2022/08/06 10:48:17;;;;;;;7.28;4.82;;;;;;;17.39;63.90;94640.88;5009000;28;20185;-70
2022/08/06 10:51:06;;;;;;;7.15;4.82;;;;;;;17.62;62.84;94639.78;5009676;28;20056;-67
2022/08/06 10:53:36;;;;;;;7.82;4.85;;;;;;;17.67;62.38;94639.22;5002596;28;20451;-69
2022/08/06 10:56:25;;;;;;;7.47;4.78;;;;;;;17.48;63.12;94632.66;5004760;28;20075;-68
2022/08/06 10:59:06;;;;;;;6.40;4.47;;;;;;;17.72;62.86;94640.66;4999416;28;20038;-69
2022/08/06 11:02:03;;;;;;;7.05;4.43;;;;;;;18.25;61.23;94642.97;5007103;28;20100;-64
2022/08/06 11:04:30;;;;;;;7.18;4.80;;;;;;;17.89;62.36;94635.81;5001443;28;20489;-67
2022/08/06 11:07:06;;;;;;;6.18;4.68;;;;;;;17.98;61.34;94633.13;5008919;28;20053;-64
2022/08/06 11:10:02;;;;;;;7.30;4.90;;;;;;;17.60;61.76;94636.66;5009412;28;20056;-69
2022/08/06 11:12:41;;;;;;;7.13;4.33;;;;;;;18.13;61.58;94634.22;5007065;28;21600;-64
2022/08/06 11:15:14;;;;;;;7.47;4.63;;;;;;;18.30;60.76;94634.06;5005403;28;20672;-65
2022/08/06 11:17:43;;;;;;;6.43;4.32;;;;;;;18.75;59.27;94630.94;5039938;28;20038;-66
2022/08/06 11:20:31;;;;;;;6.88;5.20;;;;;;;18.19;60.60;94634.44;5006807;28;20349;-68
2022/08/06 11:23:02;;;;;;;7.78;5.15;;;;;;;17.73;62.05;94634.69;5008701;28;20118;-65
2022/08/06 11:25:43;;;;;;;7.27;4.93;;;;;;;18.48;59.79;94630.69;5009571;28;20050;-64
2022/08/06 11:28:12;;;;;;;6.90;4.97;;;;;;;18.41;59.55;94628.94;4997051;28;20380;-70
2022/08/06 11:30:46;;;;;;;7.30;5.20;;;;;;;18.41;60.06;94628.13;5007751;28;20078;-65
2022/08/06 11:33:33;;;;;;;7.80;5.22;;;;;;;18.46;60.20;94625.56;5008430;28;21665;-65
2022/08/06 11:36:05;;;;;;;9.20;5.15;;;;;;;17.85;61.69;94622.03;4990296;28;20056;-64
2022/08/06 11:38:51;;;;;;;12.40;5.30;;;;;;;18.83;59.86;94617.53;5009129;28;20050;-68
2022/08/06 11:41:27;;;;;;;7.80;4.68;;;;;;;19.21;58.32;94613.78;5008013;28;20216;-68
2022/08/06 11:44:17;;;;;;;7.57;4.50;;;;;;;19.89;56.18;94605.59;5008266;28;20616;-71
2022/08/06 11:46:48;;;;;;;6.63;4.70;;;;;;;19.79;56.92;94604.03;4998944;28;20042;-70
2022/08/06 11:49:36;;;;;;;8.20;4.68;;;;;;;20.07;56.26;94601.31;4999352;28;20159;-66
2022/08/06 11:52:34;;;;;;;8.40;5.43;;;;;;;19.00;58.90;94609.03;5008356;28;21727;-64
2022/08/06 11:55:08;;;;;;;7.47;5.50;;;;;;;18.81;60.54;94606.09;5008828;28;20107;-68
2022/08/06 11:58:12;;;;;;;7.70;5.40;;;;;;;20.66;54.90;94609.63;4998466;28;20084;-65
2022/08/06 12:00:58;;;;;;;6.28;4.50;;;;;;;21.12;54.19;94596.41;5008629;28;20048;-67
2022/08/06 12:03:37;;;;;;;9.30;4.90;;;;;;;20.29;56.12;94604.00;5009872;28;20049;-68
2022/08/06 12:06:25;;;;;;;7.50;5.40;;;;;;;19.15;59.32;94602.47;5008648;28;20706;-65
2022/08/06 12:09:12;;;;;;;9.05;4.97;;;;;;;20.10;57.42;94597.59;5008074;28;20076;-67
2022/08/06 12:12:29;;;;;;;7.50;5.40;;;;;;;20.21;57.46;94597.94;5008391;28;20054;-71
2022/08/06 12:15:20;;;;;;;9.32;5.85;;;;;;;18.31;61.96;94608.63;5008322;28;20053;-69
2022/08/06 12:18:07;;;;;;;7.38;5.30;;;;;;;19.47;59.33;94600.47;5040168;28;20057;-70
2022/08/06 12:20:45;;;;;;;7.67;5.10;;;;;;;19.99;57.75;94598.06;5008280;28;20082;-67
2022/08/06 12:23:23;;;;;;;7.55;4.80;;;;;;;20.49;56.10;94603.56;5009085;28;20045;-66
2022/08/06 12:26:10;;;;;;;8.15;5.88;;;;;;;19.00;58.51;94600.69;4997391;28;20052;-66
2022/08/06 12:28:37;;;;;;;6.90;5.50;;;;;;;19.53;58.74;94590.28;5008222;28;20057;-71
2022/08/06 12:31:05;;;;;;;6.95;5.15;;;;;;;20.58;55.65;94591.63;5007242;28;20108;-65